Main page
METAR-TAF:

METAR-TAF

Airports :

Mariehamn Airport

Mariehamn, Finland

latitude: 60-07N, longitude: 019-54E, elevation: 6 m

Current weather observation

The report was made 18 minutes ago, at 03:50 UTC
Wind 3 kt from the North/Northeast, varying between North and East
Temperature 16°C
Humidity 100%
Pressure 1016 hPa
Visibility 10 km or more
no clouds below 1500 m and no cumulonimbus

METAR: EFMA 150350Z AUTO 03003KT 360V080 CAVOK 16/16 Q1016

Time: 07:08 (04:08 UTC)

Forecast

The report was made 1 hour and 39 minutes ago, at 02:29 UTC
Forecast valid from 15 at 03 UTC to 15 at 12 UTC
Wind 3 kt from the East
Visibility 10 km or more
no clouds below 1500 m and no cumulonimbus

TAF: EFMA 150229Z 1503/1512 09003KT CAVOK

Weather observations and forecasts of more than 4000 airports (METAR and TAF reports).

The available stations are represented by yellow and red dots on the map.

Hover mouse over dot to see the name of the station.

Then click to see weather observations and forecasts.

To change the map : click on the green buttons with a black cross to zoom in, on the green button with a dash to zoom out, or on the green arrows for adjacent maps.


METAR-TAF: